Martin, Oklahoma
Current Conditions -  °F | °C
As of 12:53 PM on Thursday 23 Oct 2014 (Local Time) from KMKO Reporting Station
Moderate Rain Moderate Rain  
Wind Chill: 57°   Ceiling: 4700
Heat Index: 57°   Visibility: 4mi
Dew Point: 55°   Wind: 6mph
Humidity: 93%   Direction: 150°SSE
Pressure: 30.19"   Gusts: NA
Location:  35.6818°N, 95.3578°W
Report Text: KMKO 231753Z AUTO 15005KT 4SM RA BR BKN047 OVC060 14/13 A3019 RMK AO2 RAB08 SLP222 P0004 60013 T01390128 10144 20128 58001
Loading
Personal Weather Stations






























Interactive Weather Map
Tropical Storm Tracking
New forecast layout! Learn more

10-Day Weather Forecast

Advertisements
Track Severe Weather on mobile